sensor_id;sensor_type;location;lat;lon;timestamp;pressure;altitude;pressure_sealevel;temperature;humidity
7052;BME280;3567;52.444;13.556;2023-05-25T00:01:01;101963.16;;;8.07;100.00
7052;BME280;3567;52.444;13.556;2023-05-25T00:03:28;101964.19;;;8.06;100.00
7052;BME280;3567;52.444;13.556;2023-05-25T00:05:53;101959.69;;;8.07;100.00
7052;BME280;3567;52.444;13.556;2023-05-25T00:08:18;101957.19;;;8.05;100.00
7052;BME280;3567;52.444;13.556;2023-05-25T00:10:44;101959.38;;;8.02;100.00
7052;BME280;3567;52.444;13.556;2023-05-25T00:13:09;101961.41;;;8.00;100.00
7052;BME280;3567;52.444;13.556;2023-05-25T00:15:34;101965.06;;;7.99;100.00
7052;BME280;3567;52.444;13.556;2023-05-25T00:18:00;101961.78;;;7.97;100.00
7052;BME280;3567;52.444;13.556;2023-05-25T00:20:25;101964.44;;;7.97;100.00
7052;BME280;3567;52.444;13.556;2023-05-25T00:22:51;101957.44;;;7.96;100.00
7052;BME280;3567;52.444;13.556;2023-05-25T00:25:16;101964.81;;;7.94;100.00
7052;BME280;3567;52.444;13.556;2023-05-25T00:27:42;101957.63;;;7.94;100.00
7052;BME280;3567;52.444;13.556;2023-05-25T00:30:08;101959.47;;;7.94;100.00
7052;BME280;3567;52.444;13.556;2023-05-25T00:32:33;101959.47;;;7.94;100.00
7052;BME280;3567;52.444;13.556;2023-05-25T00:34:58;101957.44;;;7.96;100.00
7052;BME280;3567;52.444;13.556;2023-05-25T00:37:24;101962.41;;;7.99;100.00
7052;BME280;3567;52.444;13.556;2023-05-25T00:39:49;101964.38;;;8.05;100.00
7052;BME280;3567;52.444;13.556;2023-05-25T00:42:15;101958.47;;;8.09;100.00
7052;BME280;3567;52.444;13.556;2023-05-25T00:44:41;101963.75;;;8.18;100.00
7052;BME280;3567;52.444;13.556;2023-05-25T00:47:06;101963.66;;;8.26;100.00
7052;BME280;3567;52.444;13.556;2023-05-25T00:49:33;101960.56;;;8.37;100.00
7052;BME280;3567;52.444;13.556;2023-05-25T00:51:59;101964.63;;;8.48;100.00
7052;BME280;3567;52.444;13.556;2023-05-25T00:54:25;101961.28;;;8.60;100.00
7052;BME280;3567;52.444;13.556;2023-05-25T00:56:55;101964.31;;;8.72;100.00
7052;BME280;3567;52.444;13.556;2023-05-25T00:59:30;101959.50;;;8.82;100.00
7052;BME280;3567;52.444;13.556;2023-05-25T01:02:02;101958.41;;;8.91;100.00
7052;BME280;3567;52.444;13.556;2023-05-25T01:04:30;101960.94;;;9.00;100.00
7052;BME280;3567;52.444;13.556;2023-05-25T01:06:58;101961.03;;;9.06;100.00
7052;BME280;3567;52.444;13.556;2023-05-25T01:09:26;101961.47;;;9.10;100.00
7052;BME280;3567;52.444;13.556;2023-05-25T01:11:52;101955.75;;;9.13;100.00
7052;BME280;3567;52.444;13.556;2023-05-25T01:14:20;101956.59;;;9.13;100.00
7052;BME280;3567;52.444;13.556;2023-05-25T01:16:47;101960.66;;;9.09;100.00
7052;BME280;3567;52.444;13.556;2023-05-25T01:19:13;101962.03;;;9.05;100.00
7052;BME280;3567;52.444;13.556;2023-05-25T01:21:46;101960.56;;;9.03;100.00
7052;BME280;3567;52.444;13.556;2023-05-25T01:26:52;101957.19;;;8.94;100.00
7052;BME280;3567;52.444;13.556;2023-05-25T01:29:20;101962.09;;;8.90;100.00
7052;BME280;3567;52.444;13.556;2023-05-25T01:31:48;101965.31;;;8.86;100.00
7052;BME280;3567;52.444;13.556;2023-05-25T01:34:14;101965.03;;;8.81;100.00
7052;BME280;3567;52.444;13.556;2023-05-25T01:36:40;101965.34;;;8.71;100.00
7052;BME280;3567;52.444;13.556;2023-05-25T01:39:06;101967.09;;;8.64;100.00
7052;BME280;3567;52.444;13.556;2023-05-25T01:41:31;101971.34;;;8.58;100.00
7052;BME280;3567;52.444;13.556;2023-05-25T01:43:57;101972.25;;;8.51;100.00
7052;BME280;3567;52.444;13.556;2023-05-25T01:46:28;101967.44;;;8.46;100.00
7052;BME280;3567;52.444;13.556;2023-05-25T01:54:15;101964.09;;;8.29;100.00
7052;BME280;3567;52.444;13.556;2023-05-25T01:56:44;101968.16;;;8.25;100.00
7052;BME280;3567;52.444;13.556;2023-05-25T01:59:11;101969.56;;;8.21;100.00
7052;BME280;3567;52.444;13.556;2023-05-25T02:01:38;101968.88;;;8.19;100.00
7052;BME280;3567;52.444;13.556;2023-05-25T02:04:05;101967.44;;;8.17;100.00
7052;BME280;3567;52.444;13.556;2023-05-25T02:06:30;101958.75;;;8.14;100.00
7052;BME280;3567;52.444;13.556;2023-05-25T02:08:55;101958.94;;;8.13;100.00
7052;BME280;3567;52.444;13.556;2023-05-25T02:11:21;101952.78;;;8.12;100.00
7052;BME280;3567;52.444;13.556;2023-05-25T02:13:46;101959.69;;;8.07;100.00
7052;BME280;3567;52.444;13.556;2023-05-25T02:16:11;101956.72;;;8.02;100.00
7052;BME280;3567;52.444;13.556;2023-05-25T02:18:37;101958.09;;;7.98;100.00
7052;BME280;3567;52.444;13.556;2023-05-25T02:21:02;101955.59;;;7.96;100.00
7052;BME280;3567;52.444;13.556;2023-05-25T02:23:28;101954.16;;;7.94;100.00
7052;BME280;3567;52.444;13.556;2023-05-25T02:25:53;101956.97;;;7.92;100.00
7052;BME280;3567;52.444;13.556;2023-05-25T02:28:20;101957.34;;;7.89;100.00
7052;BME280;3567;52.444;13.556;2023-05-25T02:30:45;101959.53;;;7.85;100.00
7052;BME280;3567;52.444;13.556;2023-05-25T02:33:10;101955.56;;;7.81;100.00
7052;BME280;3567;52.444;13.556;2023-05-25T02:35:36;101961.63;;;7.75;100.00
7052;BME280;3567;52.444;13.556;2023-05-25T02:38:02;101963.00;;;7.71;100.00
7052;BME280;3567;52.444;13.556;2023-05-25T02:40:27;101960.50;;;7.70;100.00
7052;BME280;3567;52.444;13.556;2023-05-25T02:42:53;101971.72;;;7.65;100.00
7052;BME280;3567;52.444;13.556;2023-05-25T02:45:18;101965.06;;;7.61;100.00
7052;BME280;3567;52.444;13.556;2023-05-25T02:47:43;101960.94;;;7.58;100.00
7052;BME280;3567;52.444;13.556;2023-05-25T02:50:09;101961.13;;;7.57;100.00
7052;BME280;3567;52.444;13.556;2023-05-25T02:52:34;101957.78;;;7.55;100.00
7052;BME280;3567;52.444;13.556;2023-05-25T02:55:00;101967.81;;;7.53;100.00
7052;BME280;3567;52.444;13.556;2023-05-25T02:57:25;101962.50;;;7.53;100.00
7052;BME280;3567;52.444;13.556;2023-05-25T02:59:51;101966.16;;;7.52;100.00
7052;BME280;3567;52.444;13.556;2023-05-25T03:02:16;101961.19;;;7.49;100.00
7052;BME280;3567;52.444;13.556;2023-05-25T03:04:43;101971.84;;;7.49;100.00
7052;BME280;3567;52.444;13.556;2023-05-25T03:07:10;101973.50;;;7.50;100.00
7052;BME280;3567;52.444;13.556;2023-05-25T03:09:35;101966.88;;;7.46;100.00
7052;BME280;3567;52.444;13.556;2023-05-25T03:12:01;101977.69;;;7.44;100.00
7052;BME280;3567;52.444;13.556;2023-05-25T03:14:26;101972.06;;;7.39;100.00
7052;BME280;3567;52.444;13.556;2023-05-25T03:16:52;101974.28;;;7.35;100.00
7052;BME280;3567;52.444;13.556;2023-05-25T03:19:17;101971.13;;;7.32;100.00
7052;BME280;3567;52.444;13.556;2023-05-25T03:21:45;101978.94;;;7.33;100.00
7052;BME280;3567;52.444;13.556;2023-05-25T03:24:10;101975.44;;;7.33;100.00
7052;BME280;3567;52.444;13.556;2023-05-25T03:26:35;101978.31;;;7.31;100.00
7052;BME280;3567;52.444;13.556;2023-05-25T03:29:01;101973.78;;;7.32;100.00
7052;BME280;3567;52.444;13.556;2023-05-25T03:31:26;101980.59;;;7.34;100.00
7052;BME280;3567;52.444;13.556;2023-05-25T03:33:52;101974.91;;;7.38;100.00
7052;BME280;3567;52.444;13.556;2023-05-25T03:36:17;101974.59;;;7.41;100.00
7052;BME280;3567;52.444;13.556;2023-05-25T03:38:45;101979.53;;;7.44;100.00
7052;BME280;3567;52.444;13.556;2023-05-25T03:41:11;101988.22;;;7.46;100.00
7052;BME280;3567;52.444;13.556;2023-05-25T03:43:36;101979.19;;;7.47;100.00
7052;BME280;3567;52.444;13.556;2023-05-25T03:46:01;101979.66;;;7.50;100.00
7052;BME280;3567;52.444;13.556;2023-05-25T03:48:27;101986.59;;;7.59;100.00
7052;BME280;3567;52.444;13.556;2023-05-25T03:50:52;101987.72;;;7.65;100.00
7052;BME280;3567;52.444;13.556;2023-05-25T03:53:18;101987.19;;;7.70;100.00
7052;BME280;3567;52.444;13.556;2023-05-25T03:55:43;101983.78;;;7.76;100.00
7052;BME280;3567;52.444;13.556;2023-05-25T03:58:08;101989.63;;;7.79;100.00
7052;BME280;3567;52.444;13.556;2023-05-25T04:00:35;101989.72;;;7.86;100.00
7052;BME280;3567;52.444;13.556;2023-05-25T04:03:00;101991.84;;;7.91;100.00
7052;BME280;3567;52.444;13.556;2023-05-25T04:05:26;101988.75;;;8.02;100.00
7052;BME280;3567;52.444;13.556;2023-05-25T04:07:51;101990.97;;;8.13;100.00
7052;BME280;3567;52.444;13.556;2023-05-25T04:10:17;101994.84;;;8.25;100.00
7052;BME280;3567;52.444;13.556;2023-05-25T04:12:42;101998.38;;;8.40;100.00
7052;BME280;3567;52.444;13.556;2023-05-25T04:15:07;101990.41;;;8.55;100.00
7052;BME280;3567;52.444;13.556;2023-05-25T04:17:34;101996.75;;;8.69;100.00
7052;BME280;3567;52.444;13.556;2023-05-25T04:20:00;102002.25;;;8.82;100.00
7052;BME280;3567;52.444;13.556;2023-05-25T04:22:26;102007.78;;;8.96;100.00
7052;BME280;3567;52.444;13.556;2023-05-25T04:24:52;102004.44;;;9.08;100.00
7052;BME280;3567;52.444;13.556;2023-05-25T04:27:18;102010.13;;;9.20;100.00
7052;BME280;3567;52.444;13.556;2023-05-25T04:29:44;102013.97;;;9.32;100.00
7052;BME280;3567;52.444;13.556;2023-05-25T04:32:10;102012.25;;;9.46;100.00
7052;BME280;3567;52.444;13.556;2023-05-25T04:34:38;102015.09;;;9.59;100.00
7052;BME280;3567;52.444;13.556;2023-05-25T04:37:06;102009.66;;;9.74;100.00
7052;BME280;3567;52.444;13.556;2023-05-25T04:39:33;102011.22;;;9.90;100.00
7052;BME280;3567;52.444;13.556;2023-05-25T04:41:58;102019.38;;;10.03;100.00
7052;BME280;3567;52.444;13.556;2023-05-25T04:44:29;102012.28;;;10.17;100.00
7052;BME280;3567;52.444;13.556;2023-05-25T04:46:54;102018.38;;;10.32;100.00
7052;BME280;3567;52.444;13.556;2023-05-25T04:49:19;102019.75;;;10.49;100.00
7052;BME280;3567;52.444;13.556;2023-05-25T04:51:45;102023.34;;;10.63;100.00
7052;BME280;3567;52.444;13.556;2023-05-25T04:54:11;102027.75;;;10.78;100.00
7052;BME280;3567;52.444;13.556;2023-05-25T04:56:36;102023.47;;;10.90;100.00
7052;BME280;3567;52.444;13.556;2023-05-25T04:59:01;102021.88;;;11.02;100.00
7052;BME280;3567;52.444;13.556;2023-05-25T05:01:29;102021.13;;;11.15;100.00
7052;BME280;3567;52.444;13.556;2023-05-25T05:03:54;102023.00;;;11.27;100.00
7052;BME280;3567;52.444;13.556;2023-05-25T05:06:19;102021.38;;;11.40;100.00
7052;BME280;3567;52.444;13.556;2023-05-25T05:08:45;102020.00;;;11.50;100.00
7052;BME280;3567;52.444;13.556;2023-05-25T05:11:11;102020.00;;;11.64;100.00
7052;BME280;3567;52.444;13.556;2023-05-25T05:13:36;102021.03;;;11.76;100.00
7052;BME280;3567;52.444;13.556;2023-05-25T05:16:02;102021.28;;;11.88;100.00
7052;BME280;3567;52.444;13.556;2023-05-25T05:18:27;102028.53;;;12.00;100.00
7052;BME280;3567;52.444;13.556;2023-05-25T05:20:53;102029.56;;;12.13;99.37
7052;BME280;3567;52.444;13.556;2023-05-25T05:23:20;102017.56;;;12.22;98.91
7052;BME280;3567;52.444;13.556;2023-05-25T05:25:46;102022.53;;;12.31;98.54
7052;BME280;3567;52.444;13.556;2023-05-25T05:28:12;102032.44;;;12.44;97.69
7052;BME280;3567;52.444;13.556;2023-05-25T05:30:37;102025.16;;;12.51;97.60
7052;BME280;3567;52.444;13.556;2023-05-25T05:33:02;102023.50;;;12.64;97.57
7052;BME280;3567;52.444;13.556;2023-05-25T05:35:28;102029.28;;;12.74;97.08
7052;BME280;3567;52.444;13.556;2023-05-25T05:37:53;102027.38;;;12.81;96.49
7052;BME280;3567;52.444;13.556;2023-05-25T05:40:19;102036.47;;;12.87;95.39
7052;BME280;3567;52.444;13.556;2023-05-25T05:42:44;102041.81;;;12.93;95.49
7052;BME280;3567;52.444;13.556;2023-05-25T05:45:10;102034.75;;;12.99;95.17
7052;BME280;3567;52.444;13.556;2023-05-25T05:47:35;102043.66;;;13.06;94.05
7052;BME280;3567;52.444;13.556;2023-05-25T05:50:01;102038.22;;;13.13;94.01
7052;BME280;3567;52.444;13.556;2023-05-25T05:52:26;102044.63;;;13.18;94.11
7052;BME280;3567;52.444;13.556;2023-05-25T05:55:00;102048.31;;;13.30;92.99
7052;BME280;3567;52.444;13.556;2023-05-25T05:57:37;102047.22;;;13.45;93.21
7052;BME280;3567;52.444;13.556;2023-05-25T06:00:11;102052.31;;;13.53;92.18
7052;BME280;3567;52.444;13.556;2023-05-25T06:02:37;102058.06;;;13.63;92.35
7052;BME280;3567;52.444;13.556;2023-05-25T06:05:03;102059.28;;;13.67;91.72
7052;BME280;3567;52.444;13.556;2023-05-25T06:07:28;102065.09;;;13.71;91.62
7052;BME280;3567;52.444;13.556;2023-05-25T06:09:55;102062.94;;;13.79;91.13
7052;BME280;3567;52.444;13.556;2023-05-25T06:12:20;102066.19;;;13.88;91.17
7052;BME280;3567;52.444;13.556;2023-05-25T06:14:46;102071.53;;;13.95;90.53
7052;BME280;3567;52.444;13.556;2023-05-25T06:17:14;102070.28;;;13.97;90.19
7052;BME280;3567;52.444;13.556;2023-05-25T06:19:41;102064.03;;;14.03;89.57
7052;BME280;3567;52.444;13.556;2023-05-25T06:22:06;102067.72;;;14.09;89.38
7052;BME280;3567;52.444;13.556;2023-05-25T06:24:32;102071.16;;;14.16;89.13
7052;BME280;3567;52.444;13.556;2023-05-25T06:26:57;102069.63;;;14.27;88.59
7052;BME280;3567;52.444;13.556;2023-05-25T06:29:23;102068.53;;;14.34;88.26
7052;BME280;3567;52.444;13.556;2023-05-25T06:31:48;102071.41;;;14.39;88.29
7052;BME280;3567;52.444;13.556;2023-05-25T06:34:13;102069.47;;;14.47;87.31
7052;BME280;3567;52.444;13.556;2023-05-25T06:36:39;102070.69;;;14.51;86.49
7052;BME280;3567;52.444;13.556;2023-05-25T06:39:04;102078.88;;;14.62;85.91
7052;BME280;3567;52.444;13.556;2023-05-25T06:41:31;102077.91;;;14.75;86.06
7052;BME280;3567;52.444;13.556;2023-05-25T06:43:56;102071.41;;;14.83;86.27
7052;BME280;3567;52.444;13.556;2023-05-25T06:46:21;102069.09;;;14.86;85.33
7052;BME280;3567;52.444;13.556;2023-05-25T06:48:47;102080.88;;;14.92;84.91
7052;BME280;3567;52.444;13.556;2023-05-25T06:51:12;102078.91;;;14.99;84.44
7052;BME280;3567;52.444;13.556;2023-05-25T06:53:37;102081.28;;;15.07;84.12
7052;BME280;3567;52.444;13.556;2023-05-25T06:56:04;102079.72;;;15.18;83.45
7052;BME280;3567;52.444;13.556;2023-05-25T06:58:30;102080.22;;;15.27;82.89
7052;BME280;3567;52.444;13.556;2023-05-25T07:00:55;102077.22;;;15.35;81.80
7052;BME280;3567;52.444;13.556;2023-05-25T07:03:20;102068.81;;;15.43;81.44
7052;BME280;3567;52.444;13.556;2023-05-25T07:05:46;102071.78;;;15.53;80.78
7052;BME280;3567;52.444;13.556;2023-05-25T07:08:11;102075.19;;;15.60;80.07
7052;BME280;3567;52.444;13.556;2023-05-25T07:10:37;102073.88;;;15.69;79.97
7052;BME280;3567;52.444;13.556;2023-05-25T07:13:02;102073.69;;;15.83;79.67
7052;BME280;3567;52.444;13.556;2023-05-25T07:15:28;102067.94;;;15.91;78.29
7052;BME280;3567;52.444;13.556;2023-05-25T07:17:53;102071.38;;;15.98;77.80
7052;BME280;3567;52.444;13.556;2023-05-25T07:20:21;102069.75;;;16.09;77.05
7052;BME280;3567;52.444;13.556;2023-05-25T07:22:47;102072.34;;;16.15;76.12
7052;BME280;3567;52.444;13.556;2023-05-25T07:25:13;102072.47;;;16.20;75.71
7052;BME280;3567;52.444;13.556;2023-05-25T07:27:38;102067.75;;;16.28;75.05
7052;BME280;3567;52.444;13.556;2023-05-25T07:30:04;102080.59;;;16.44;74.20
7052;BME280;3567;52.444;13.556;2023-05-25T07:32:30;102071.06;;;16.53;73.45
7052;BME280;3567;52.444;13.556;2023-05-25T07:34:56;102076.34;;;16.60;72.91
7052;BME280;3567;52.444;13.556;2023-05-25T07:37:21;102074.00;;;16.63;72.55
7052;BME280;3567;52.444;13.556;2023-05-25T07:39:46;102076.47;;;16.76;71.77
7052;BME280;3567;52.444;13.556;2023-05-25T07:42:12;102074.13;;;16.92;71.05
7052;BME280;3567;52.444;13.556;2023-05-25T07:44:37;102069.47;;;17.04;70.25
7052;BME280;3567;52.444;13.556;2023-05-25T07:47:03;102081.22;;;17.21;69.95
7052;BME280;3567;52.444;13.556;2023-05-25T07:49:28;102073.16;;;17.38;67.23
7052;BME280;3567;52.444;13.556;2023-05-25T07:51:54;102072.38;;;17.54;66.28
7052;BME280;3567;52.444;13.556;2023-05-25T07:54:19;102077.81;;;17.83;66.17
7052;BME280;3567;52.444;13.556;2023-05-25T07:56:45;102070.13;;;18.09;65.79
7052;BME280;3567;52.444;13.556;2023-05-25T07:59:10;102079.88;;;18.26;64.78
7052;BME280;3567;52.444;13.556;2023-05-25T08:01:35;102078.84;;;18.27;63.94
7052;BME280;3567;52.444;13.556;2023-05-25T08:04:01;102079.78;;;18.21;62.17
7052;BME280;3567;52.444;13.556;2023-05-25T08:06:27;102072.16;;;18.18;61.95
7052;BME280;3567;52.444;13.556;2023-05-25T08:08:52;102072.09;;;18.13;61.91
7052;BME280;3567;52.444;13.556;2023-05-25T08:11:22;102073.56;;;18.04;61.11
7052;BME280;3567;52.444;13.556;2023-05-25T08:13:48;102070.09;;;17.92;61.20
7052;BME280;3567;52.444;13.556;2023-05-25T08:16:13;102075.19;;;18.05;61.95
7052;BME280;3567;52.444;13.556;2023-05-25T08:18:38;102072.72;;;18.37;60.73
7052;BME280;3567;52.444;13.556;2023-05-25T08:21:05;102071.91;;;18.70;59.45
7052;BME280;3567;52.444;13.556;2023-05-25T08:23:31;102067.72;;;18.84;59.40
7052;BME280;3567;52.444;13.556;2023-05-25T08:25:56;102076.75;;;18.90;59.28
7052;BME280;3567;52.444;13.556;2023-05-25T08:28:21;102072.13;;;18.86;58.95
7052;BME280;3567;52.444;13.556;2023-05-25T08:30:47;102074.69;;;18.75;58.57
7052;BME280;3567;52.444;13.556;2023-05-25T08:33:12;102072.34;;;18.67;58.64
7052;BME280;3567;52.444;13.556;2023-05-25T08:35:37;102072.13;;;18.52;57.33
7052;BME280;3567;52.444;13.556;2023-05-25T08:38:05;102070.41;;;18.46;57.23
7052;BME280;3567;52.444;13.556;2023-05-25T08:40:30;102075.19;;;18.55;57.94
7052;BME280;3567;52.444;13.556;2023-05-25T08:42:56;102074.75;;;18.80;58.83
7052;BME280;3567;52.444;13.556;2023-05-25T08:45:22;102054.94;;;19.02;56.42
7052;BME280;3567;52.444;13.556;2023-05-25T08:47:47;102064.84;;;19.13;56.38
7052;BME280;3567;52.444;13.556;2023-05-25T08:50:15;102057.94;;;19.05;56.64
7052;BME280;3567;52.444;13.556;2023-05-25T08:52:44;102052.72;;;18.99;55.61
7052;BME280;3567;52.444;13.556;2023-05-25T08:55:11;102067.25;;;18.88;57.04
7052;BME280;3567;52.444;13.556;2023-05-25T08:57:54;102073.91;;;18.80;56.80
7052;BME280;3567;52.444;13.556;2023-05-25T09:00:24;102065.00;;;18.84;56.50
7052;BME280;3567;52.444;13.556;2023-05-25T09:03:12;102061.94;;;18.98;55.99
7052;BME280;3567;52.444;13.556;2023-05-25T09:05:40;102062.31;;;19.28;55.81
7052;BME280;3567;52.444;13.556;2023-05-25T09:08:07;102074.34;;;19.59;56.36
7052;BME280;3567;52.444;13.556;2023-05-25T09:10:39;102064.97;;;19.72;54.32
7052;BME280;3567;52.444;13.556;2023-05-25T09:13:05;102064.28;;;19.60;53.87
7052;BME280;3567;52.444;13.556;2023-05-25T09:15:31;102072.06;;;19.51;54.92
7052;BME280;3567;52.444;13.556;2023-05-25T09:17:57;102073.28;;;19.38;54.17
7052;BME280;3567;52.444;13.556;2023-05-25T09:20:23;102067.59;;;19.62;53.80
7052;BME280;3567;52.444;13.556;2023-05-25T09:22:48;102065.22;;;19.98;52.50
7052;BME280;3567;52.444;13.556;2023-05-25T09:25:17;102073.94;;;20.37;52.61
7052;BME280;3567;52.444;13.556;2023-05-25T09:27:45;102069.84;;;20.39;51.87
7052;BME280;3567;52.444;13.556;2023-05-25T09:30:11;102062.66;;;20.23;51.86
7052;BME280;3567;52.444;13.556;2023-05-25T09:32:37;102067.44;;;20.06;51.82
7052;BME280;3567;52.444;13.556;2023-05-25T09:35:10;102072.41;;;19.82;51.67
7052;BME280;3567;52.444;13.556;2023-05-25T09:37:36;102069.78;;;19.65;52.63
7052;BME280;3567;52.444;13.556;2023-05-25T09:40:05;102070.81;;;19.59;53.29
7052;BME280;3567;52.444;13.556;2023-05-25T09:42:32;102070.72;;;19.54;53.63
7052;BME280;3567;52.444;13.556;2023-05-25T09:44:58;102065.94;;;19.61;53.23
7052;BME280;3567;52.444;13.556;2023-05-25T09:47:25;102079.69;;;19.54;53.84
7052;BME280;3567;52.444;13.556;2023-05-25T09:49:51;102079.47;;;19.56;53.26
7052;BME280;3567;52.444;13.556;2023-05-25T09:52:16;102082.22;;;19.34;54.00
7052;BME280;3567;52.444;13.556;2023-05-25T09:54:47;102080.13;;;19.19;54.38
7052;BME280;3567;52.444;13.556;2023-05-25T09:57:17;102087.06;;;19.10;54.72
7052;BME280;3567;52.444;13.556;2023-05-25T09:59:43;102080.13;;;19.19;54.60
7052;BME280;3567;52.444;13.556;2023-05-25T10:02:10;102072.94;;;19.57;53.13
7052;BME280;3567;52.444;13.556;2023-05-25T10:04:36;102072.75;;;19.91;52.96
7052;BME280;3567;52.444;13.556;2023-05-25T10:07:02;102070.69;;;20.08;51.61
7052;BME280;3567;52.444;13.556;2023-05-25T10:09:29;102064.44;;;20.07;51.43
7052;BME280;3567;52.444;13.556;2023-05-25T10:11:56;102068.16;;;19.96;50.59
7052;BME280;3567;52.444;13.556;2023-05-25T10:14:26;102076.00;;;19.87;51.48
7052;BME280;3567;52.444;13.556;2023-05-25T10:16:57;102070.03;;;19.91;51.90
7052;BME280;3567;52.444;13.556;2023-05-25T10:19:36;102067.50;;;20.16;50.81
7052;BME280;3567;52.444;13.556;2023-05-25T10:22:18;102068.72;;;20.30;50.59
7052;BME280;3567;52.444;13.556;2023-05-25T10:27:36;102066.72;;;20.53;49.08
7052;BME280;3567;52.444;13.556;2023-05-25T10:30:03;102065.78;;;20.42;49.46
7052;BME280;3567;52.444;13.556;2023-05-25T10:32:30;102071.84;;;20.49;50.18
7052;BME280;3567;52.444;13.556;2023-05-25T10:34:57;102064.00;;;20.53;50.09
7052;BME280;3567;52.444;13.556;2023-05-25T10:37:25;102067.78;;;20.47;50.09
7052;BME280;3567;52.444;13.556;2023-05-25T10:39:52;102075.06;;;20.41;51.58
7052;BME280;3567;52.444;13.556;2023-05-25T10:42:19;102074.16;;;20.30;51.07
7052;BME280;3567;52.444;13.556;2023-05-25T10:44:45;102077.69;;;20.68;51.31
7052;BME280;3567;52.444;13.556;2023-05-25T10:47:11;102064.22;;;21.04;49.80
7052;BME280;3567;52.444;13.556;2023-05-25T10:49:56;102059.53;;;21.47;49.20
7052;BME280;3567;52.444;13.556;2023-05-25T10:52:28;102056.28;;;21.90;47.93
7052;BME280;3567;52.444;13.556;2023-05-25T10:54:58;102045.34;;;22.31;46.74
7052;BME280;3567;52.444;13.556;2023-05-25T10:57:26;102044.72;;;22.70;47.10
7052;BME280;3567;52.444;13.556;2023-05-25T10:59:53;102045.19;;;22.97;45.11
7052;BME280;3567;52.444;13.556;2023-05-25T11:02:27;102042.22;;;22.89;44.58
7052;BME280;3567;52.444;13.556;2023-05-25T11:08:02;102037.91;;;22.67;44.50
7052;BME280;3567;52.444;13.556;2023-05-25T11:13:35;102032.56;;;22.01;43.65
7052;BME280;3567;52.444;13.556;2023-05-25T11:18:57;102044.63;;;21.07;46.03
7052;BME280;3567;52.444;13.556;2023-05-25T11:23:58;102043.56;;;21.13;47.56
7052;BME280;3567;52.444;13.556;2023-05-25T11:26:26;102049.34;;;21.27;48.49
7052;BME280;3567;52.444;13.556;2023-05-25T11:28:53;102049.19;;;21.84;47.06
7052;BME280;3567;52.444;13.556;2023-05-25T11:33:55;102054.88;;;21.67;47.23
7052;BME280;3567;52.444;13.556;2023-05-25T11:36:28;102052.97;;;21.53;46.80
7052;BME280;3567;52.444;13.556;2023-05-25T11:38:56;102047.75;;;21.36;46.66
7052;BME280;3567;52.444;13.556;2023-05-25T11:41:22;102047.75;;;21.41;47.11
7052;BME280;3567;52.444;13.556;2023-05-25T11:43:49;102040.97;;;22.05;46.10
7052;BME280;3567;52.444;13.556;2023-05-25T11:46:18;102033.09;;;23.14;44.58
7052;BME280;3567;52.444;13.556;2023-05-25T11:48:48;102016.28;;;23.75;41.19
7052;BME280;3567;52.444;13.556;2023-05-25T11:51:13;102021.59;;;24.24;41.62
7052;BME280;3567;52.444;13.556;2023-05-25T11:53:43;102012.78;;;24.56;38.59
7052;BME280;3567;52.444;13.556;2023-05-25T11:56:10;102013.75;;;24.66;40.01
7052;BME280;3567;52.444;13.556;2023-05-25T11:58:36;102017.34;;;24.85;39.92
7052;BME280;3567;52.444;13.556;2023-05-25T12:03:38;102005.53;;;25.08;38.81
7052;BME280;3567;52.444;13.556;2023-05-25T12:06:03;102007.59;;;25.54;38.08
7052;BME280;3567;52.444;13.556;2023-05-25T12:08:35;101997.78;;;25.86;37.90
7052;BME280;3567;52.444;13.556;2023-05-25T12:11:02;102001.81;;;25.75;38.14
7052;BME280;3567;52.444;13.556;2023-05-25T12:13:29;101997.59;;;25.64;38.02
7052;BME280;3567;52.444;13.556;2023-05-25T12:15:55;101994.69;;;25.74;37.83
7052;BME280;3567;52.444;13.556;2023-05-25T12:18:26;101993.88;;;26.06;37.46
7052;BME280;3567;52.444;13.556;2023-05-25T12:20:53;101989.91;;;26.12;36.55
7052;BME280;3567;52.444;13.556;2023-05-25T12:23:19;101987.31;;;25.88;36.91
7052;BME280;3567;52.444;13.556;2023-05-25T12:25:44;101990.41;;;25.30;37.80
7052;BME280;3567;52.444;13.556;2023-05-25T12:28:10;102013.19;;;24.69;38.39
7052;BME280;3567;52.444;13.556;2023-05-25T12:30:36;101998.00;;;23.99;38.94
7052;BME280;3567;52.444;13.556;2023-05-25T12:33:02;102007.16;;;23.50;40.22
7052;BME280;3567;52.444;13.556;2023-05-25T12:35:28;102010.47;;;23.87;40.67
7052;BME280;3567;52.444;13.556;2023-05-25T12:38:13;101997.88;;;24.15;38.39
7052;BME280;3567;52.444;13.556;2023-05-25T12:40:42;102003.44;;;24.04;38.65
7052;BME280;3567;52.444;13.556;2023-05-25T12:43:07;102009.78;;;23.71;40.00
7052;BME280;3567;52.444;13.556;2023-05-25T12:45:38;102003.50;;;23.21;39.71
7052;BME280;3567;52.444;13.556;2023-05-25T12:48:03;102010.53;;;22.83;40.79
7052;BME280;3567;52.444;13.556;2023-05-25T12:50:29;102018.31;;;22.40;41.72
7052;BME280;3567;52.444;13.556;2023-05-25T12:53:00;102018.91;;;21.96;42.11
7052;BME280;3567;52.444;13.556;2023-05-25T12:55:27;102022.16;;;21.67;43.83
7052;BME280;3567;52.444;13.556;2023-05-25T12:57:58;102027.91;;;21.76;44.72
7052;BME280;3567;52.444;13.556;2023-05-25T13:00:25;102032.28;;;21.92;45.62
7052;BME280;3567;52.444;13.556;2023-05-25T13:02:52;102033.88;;;22.49;45.49
7052;BME280;3567;52.444;13.556;2023-05-25T13:05:22;102017.84;;;23.03;44.38
7052;BME280;3567;52.444;13.556;2023-05-25T13:07:48;102018.50;;;22.69;43.58
7052;BME280;3567;52.444;13.556;2023-05-25T13:10:14;102020.81;;;22.21;45.17
7052;BME280;3567;52.444;13.556;2023-05-25T13:12:42;102023.00;;;22.19;45.81
7052;BME280;3567;52.444;13.556;2023-05-25T13:15:08;102027.16;;;23.02;45.49
7052;BME280;3567;52.444;13.556;2023-05-25T13:17:33;102013.53;;;23.75;43.78
7052;BME280;3567;52.444;13.556;2023-05-25T13:19:59;102014.47;;;23.60;43.27
7052;BME280;3567;52.444;13.556;2023-05-25T13:22:25;102016.09;;;23.17;43.96
7052;BME280;3567;52.444;13.556;2023-05-25T13:24:50;102020.34;;;22.89;45.18